Terminal Aerodrome Forecast
Issued by NWS

Home | Current Version | Previous Version | Text Only | Print | Product List | Glossary On
Versions: 1 2 3 4 5 6 7 8 9 10 11 12 13 14
419
FTUS44 KEPZ 272329
TAFDMN
TAF
KDMN 272329Z 2800/2824 29008KT P6SM VCTS SCT060CB BKN120
      TEMPO 2800/2802 VRB25G35KT 3SM TSRA BKN040CB OVC100
     FM280600 06006KT P6SM VCSH SCT050 BKN100 BKN200
     FM281800 20007KT P6SM VCTS SCT060CB BKN100=

USA.gov is the U.S. government's official web portal to all federal, state and local government web resources and services.